Time;durP1;ratioP1;P1;durP2;ratioP2;P2;SDS_P1;SDS_P2;PMS_P1;PMS_P2;Temp;Humidity;BMP_temperature;BMP_pressure;BME280_temperature;BME280_humidity;BME280_pressure;Samples;Min_cycle;Max_cycle;Signal;HPM_P1;HPM_P2
2022/01/11 00:00:43;;;;;;;4.68;3.90;;;;;;;;;;5044248;28;20041;-60
2022/01/11 00:03:09;;;;;;;7.72;4.45;;;;;;;;;;5041848;28;20159;-60
2022/01/11 00:08:12;;;;;;;4.90;3.50;;;;;;;;;;5037795;28;20339;-60
2022/01/11 00:10:48;;;;;;;5.80;4.40;;;;;;;;;;5038753;28;20575;-60
2022/01/11 00:13:15;;;;;;;5.82;4.68;;;;;;;;;;5039637;28;20040;-60
2022/01/11 00:15:40;;;;;;;6.10;3.78;;;;;;;;;;5039967;28;20064;-60
2022/01/11 00:18:06;;;;;;;6.93;4.43;;;;;;;;;;5038930;28;20065;-60
2022/01/11 00:20:31;;;;;;;5.45;3.83;;;;;;;;;;5038553;28;20047;-60
2022/01/11 00:25:26;;;;;;;4.78;3.90;;;;;;;;;;5038084;28;20117;-60
2022/01/11 00:27:52;;;;;;;5.85;3.63;;;;;;;;;;5038676;28;20521;-59
2022/01/11 00:30:18;;;;;;;4.45;3.70;;;;;;;;;;5039031;28;20112;-59
2022/01/11 00:32:49;;;;;;;6.05;4.13;;;;;;;;;;5037980;28;20036;-59
2022/01/11 00:35:16;;;;;;;5.32;4.05;;;;;;;;;;5038890;28;20450;-59
2022/01/11 00:37:43;;;;;;;8.93;4.22;;;;;;;;;;5040598;28;20045;-59
2022/01/11 00:40:09;;;;;;;4.72;3.30;;;;;;;;;;5038229;28;20091;-59
2022/01/11 00:42:35;;;;;;;3.95;3.55;;;;;;;;;;5037957;28;20351;-59
2022/01/11 00:45:05;;;;;;;4.80;4.00;;;;;;;;;;5037316;28;20032;-59
2022/01/11 00:47:31;;;;;;;4.82;3.80;;;;;;;;;;5036167;28;20033;-59
2022/01/11 00:49:56;;;;;;;3.30;2.95;;;;;;;;;;5039154;28;20561;-59
2022/01/11 00:52:21;;;;;;;4.03;3.35;;;;;;;;;;5035243;28;20029;-59
2022/01/11 00:54:47;;;;;;;4.75;3.35;;;;;;;;;;5035619;28;20029;-59
2022/01/11 00:57:13;;;;;;;4.88;3.30;;;;;;;;;;5035851;28;20102;-59
2022/01/11 00:59:38;;;;;;;4.45;3.22;;;;;;;;;;5040025;28;20060;-59
2022/01/11 01:02:03;;;;;;;3.58;3.25;;;;;;;;;;5036674;28;20028;-60
2022/01/11 01:04:29;;;;;;;3.25;2.92;;;;;;;;;;5039681;28;20539;-60
2022/01/11 01:06:54;;;;;;;7.03;4.60;;;;;;;;;;5038502;28;20025;-59
2022/01/11 01:09:20;;;;;;;6.97;3.25;;;;;;;;;;5037761;28;20348;-58
2022/01/11 01:11:46;;;;;;;3.63;3.22;;;;;;;;;;5038176;28;20084;-59
2022/01/11 01:14:12;;;;;;;4.13;3.72;;;;;;;;;;5039414;28;20037;-59
2022/01/11 01:16:39;;;;;;;21.70;4.07;;;;;;;;;;5036676;28;20025;-58
2022/01/11 01:19:05;;;;;;;4.30;3.50;;;;;;;;;;5039015;28;20029;-60
2022/01/11 01:21:36;;;;;;;4.95;4.18;;;;;;;;;;5042808;28;20052;-59
2022/01/11 01:24:03;;;;;;;4.03;3.63;;;;;;;;;;5042765;28;20026;-59
2022/01/11 01:26:29;;;;;;;3.97;3.55;;;;;;;;;;5044256;28;20175;-59
2022/01/11 01:28:54;;;;;;;4.00;3.58;;;;;;;;;;5041832;28;20484;-59
2022/01/11 01:31:20;;;;;;;4.03;3.53;;;;;;;;;;5042808;28;20029;-59
2022/01/11 01:33:45;;;;;;;3.38;3.08;;;;;;;;;;5043366;28;20033;-59
2022/01/11 01:36:11;;;;;;;4.82;4.43;;;;;;;;;;5041802;28;20036;-59
2022/01/11 01:38:38;;;;;;;4.65;3.75;;;;;;;;;;5043702;28;20347;-59
2022/01/11 01:41:13;;;;;;;3.72;3.42;;;;;;;;;;5043535;28;20021;-59
2022/01/11 01:43:39;;;;;;;6.32;4.70;;;;;;;;;;5041811;28;20266;-59
2022/01/11 01:46:05;;;;;;;4.28;3.88;;;;;;;;;;5042165;28;20162;-59
2022/01/11 01:48:30;;;;;;;6.82;4.43;;;;;;;;;;5038876;28;20041;-59
2022/01/11 01:50:56;;;;;;;5.40;4.05;;;;;;;;;;5043411;28;20417;-59
2022/01/11 01:53:22;;;;;;;3.97;3.58;;;;;;;;;;5040239;28;20362;-59
2022/01/11 01:55:48;;;;;;;4.00;3.25;;;;;;;;;;5044191;28;20037;-60
2022/01/11 01:58:15;;;;;;;3.60;3.25;;;;;;;;;;5042314;28;20040;-59
2022/01/11 02:00:43;;;;;;;3.92;3.22;;;;;;;;;;5042207;28;20030;-59
2022/01/11 02:03:12;;;;;;;4.72;4.32;;;;;;;;;;5041904;28;20029;-59
2022/01/11 02:05:42;;;;;;;4.82;3.72;;;;;;;;;;5040362;28;20041;-58
2022/01/11 02:08:08;;;;;;;5.72;4.72;;;;;;;;;;5042099;28;20127;-59
2022/01/11 02:10:36;;;;;;;5.30;4.22;;;;;;;;;;5040595;28;20087;-59
2022/01/11 02:13:03;;;;;;;5.10;3.75;;;;;;;;;;5041382;28;20051;-59
2022/01/11 02:15:29;;;;;;;4.03;3.63;;;;;;;;;;5043693;28;20037;-59
2022/01/11 02:17:54;;;;;;;6.60;5.50;;;;;;;;;;5039545;28;20191;-59
2022/01/11 02:20:20;;;;;;;6.55;3.83;;;;;;;;;;5039707;28;20108;-59
2022/01/11 02:22:45;;;;;;;4.60;4.05;;;;;;;;;;5040032;28;20080;-59
2022/01/11 02:25:11;;;;;;;4.75;4.28;;;;;;;;;;5039376;28;20090;-59
2022/01/11 02:27:37;;;;;;;5.75;4.03;;;;;;;;;;5040182;28;20087;-59
2022/01/11 02:30:04;;;;;;;4.40;3.58;;;;;;;;;;5041236;28;20051;-59
2022/01/11 02:32:30;;;;;;;5.72;4.93;;;;;;;;;;5040870;28;20421;-59
2022/01/11 02:34:55;;;;;;;6.78;3.72;;;;;;;;;;5042558;28;20040;-59
2022/01/11 02:37:20;;;;;;;4.03;3.40;;;;;;;;;;5041629;28;20036;-58
2022/01/11 02:39:46;;;;;;;5.15;4.13;;;;;;;;;;5040908;28;20358;-59
2022/01/11 02:42:13;;;;;;;5.07;4.25;;;;;;;;;;5043841;28;20136;-59
2022/01/11 02:44:39;;;;;;;7.05;4.38;;;;;;;;;;5041815;28;20120;-59
2022/01/11 02:47:05;;;;;;;3.88;3.47;;;;;;;;;;5040447;28;20037;-58
2022/01/11 02:49:30;;;;;;;4.50;3.65;;;;;;;;;;5039778;28;20037;-59
2022/01/11 02:51:56;;;;;;;5.50;4.28;;;;;;;;;;5039128;28;20378;-59
2022/01/11 02:54:22;;;;;;;7.32;5.03;;;;;;;;;;5040836;28;20021;-59
2022/01/11 02:56:47;;;;;;;5.20;4.28;;;;;;;;;;5045323;28;20045;-58
2022/01/11 02:59:13;;;;;;;6.65;3.70;;;;;;;;;;5039731;28;20033;-58
2022/01/11 03:01:38;;;;;;;5.10;4.13;;;;;;;;;;5039727;28;20497;-58
2022/01/11 03:04:04;;;;;;;7.82;4.03;;;;;;;;;;5041924;28;20052;-59
2022/01/11 03:06:29;;;;;;;5.03;4.53;;;;;;;;;;5041977;28;20121;-59
2022/01/11 03:08:54;;;;;;;5.07;3.67;;;;;;;;;;5040903;28;20025;-60
2022/01/11 03:11:21;;;;;;;4.93;4.03;;;;;;;;;;5042391;28;20029;-59
2022/01/11 03:13:47;;;;;;;3.92;3.53;;;;;;;;;;5039554;28;20039;-60
2022/01/11 03:16:15;;;;;;;3.88;3.35;;;;;;;;;;5040611;28;20135;-59
2022/01/11 03:18:42;;;;;;;4.32;3.60;;;;;;;;;;5040428;28;20032;-59
2022/01/11 03:21:07;;;;;;;6.03;4.47;;;;;;;;;;5040515;28;20127;-60
2022/01/11 03:23:33;;;;;;;5.63;4.57;;;;;;;;;;5043396;28;20045;-59
2022/01/11 03:26:02;;;;;;;7.18;5.13;;;;;;;;;;5043506;28;20470;-60
2022/01/11 03:28:27;;;;;;;5.20;4.20;;;;;;;;;;5030747;28;20032;-59
2022/01/11 03:30:53;;;;;;;5.97;4.20;;;;;;;;;;5041617;28;20032;-60
2022/01/11 03:33:19;;;;;;;4.47;4.07;;;;;;;;;;5041438;28;20111;-60
2022/01/11 03:35:45;;;;;;;5.95;4.75;;;;;;;;;;5039480;28;20107;-60
2022/01/11 03:38:12;;;;;;;4.75;4.25;;;;;;;;;;5040308;28;20021;-59
2022/01/11 03:40:38;;;;;;;4.10;3.53;;;;;;;;;;5039803;28;20037;-59
2022/01/11 03:43:04;;;;;;;4.30;3.90;;;;;;;;;;5039035;28;20029;-59
2022/01/11 03:45:31;;;;;;;5.90;4.45;;;;;;;;;;5038993;28;20032;-60
2022/01/11 03:47:58;;;;;;;5.32;4.28;;;;;;;;;;5038851;28;20055;-60
2022/01/11 03:50:24;;;;;;;4.25;3.67;;;;;;;;;;5037399;28;20049;-59
2022/01/11 03:52:58;;;;;;;4.07;3.67;;;;;;;;;;5039374;28;20033;-60
2022/01/11 03:58:11;;;;;;;7.68;3.53;;;;;;;;;;5037890;28;20837;-59
2022/01/11 04:00:37;;;;;;;4.65;3.53;;;;;;;;;;5039404;28;20044;-59
2022/01/11 04:03:04;;;;;;;5.07;4.25;;;;;;;;;;5038442;28;20029;-60
2022/01/11 04:05:29;;;;;;;8.90;5.07;;;;;;;;;;5041074;28;20065;-60
2022/01/11 04:07:55;;;;;;;4.10;3.67;;;;;;;;;;5039516;28;20075;-59
2022/01/11 04:10:20;;;;;;;5.55;4.63;;;;;;;;;;5039364;28;20346;-60
2022/01/11 04:12:48;;;;;;;5.13;4.63;;;;;;;;;;5040539;28;20037;-60
2022/01/11 04:15:13;;;;;;;4.03;3.63;;;;;;;;;;5037331;28;20035;-60
2022/01/11 04:17:39;;;;;;;5.38;4.30;;;;;;;;;;5040172;28;20112;-60
2022/01/11 04:20:05;;;;;;;5.38;4.72;;;;;;;;;;5035873;28;20052;-60
2022/01/11 04:22:30;;;;;;;5.10;4.60;;;;;;;;;;5040233;28;20041;-59
2022/01/11 04:24:56;;;;;;;5.13;4.63;;;;;;;;;;5036406;28;20039;-59
2022/01/11 04:27:21;;;;;;;5.30;4.63;;;;;;;;;;5039153;28;20060;-59
2022/01/11 04:29:46;;;;;;;6.13;4.28;;;;;;;;;;5039127;28;20046;-59
2022/01/11 04:32:12;;;;;;;7.18;6.15;;;;;;;;;;5036280;28;20905;-59
2022/01/11 04:34:37;;;;;;;4.60;4.10;;;;;;;;;;5037120;28;20572;-59
2022/01/11 04:37:03;;;;;;;5.88;5.20;;;;;;;;;;5039817;28;20053;-59
2022/01/11 04:39:28;;;;;;;4.63;3.88;;;;;;;;;;5038716;28;20079;-59
2022/01/11 04:41:54;;;;;;;12.18;5.03;;;;;;;;;;5037821;28;20028;-59
2022/01/11 04:44:19;;;;;;;5.63;4.68;;;;;;;;;;5038875;28;20099;-59
2022/01/11 04:46:45;;;;;;;6.15;5.00;;;;;;;;;;5042308;28;20514;-58
2022/01/11 04:49:10;;;;;;;6.82;5.72;;;;;;;;;;5034481;28;20053;-59
2022/01/11 04:51:36;;;;;;;7.60;5.60;;;;;;;;;;5038572;28;20056;-59
2022/01/11 04:54:02;;;;;;;7.50;4.80;;;;;;;;;;5038433;28;20420;-59
2022/01/11 04:56:28;;;;;;;5.28;4.72;;;;;;;;;;5040371;28;20064;-58
2022/01/11 04:58:54;;;;;;;6.30;5.45;;;;;;;;;;5037349;28;20021;-59
2022/01/11 05:01:19;;;;;;;5.45;4.95;;;;;;;;;;5039280;28;20529;-59
2022/01/11 05:03:45;;;;;;;6.13;5.43;;;;;;;;;;5037432;28;20055;-59
2022/01/11 05:06:10;;;;;;;6.93;5.15;;;;;;;;;;5038248;28;20408;-58
2022/01/11 05:08:36;;;;;;;5.60;4.72;;;;;;;;;;5037416;28;20037;-59
2022/01/11 05:11:01;;;;;;;6.45;5.20;;;;;;;;;;5035423;28;20039;-59
2022/01/11 05:13:27;;;;;;;4.35;3.95;;;;;;;;;;5040465;28;20037;-58
2022/01/11 05:15:52;;;;;;;5.78;4.18;;;;;;;;;;5042043;28;20038;-58
2022/01/11 05:18:17;;;;;;;5.70;5.03;;;;;;;;;;5039800;28;20026;-59
2022/01/11 05:20:43;;;;;;;11.38;5.07;;;;;;;;;;5038554;28;20040;-59
2022/01/11 05:23:10;;;;;;;4.95;4.47;;;;;;;;;;5038586;28;20044;-59
2022/01/11 05:25:36;;;;;;;5.15;4.63;;;;;;;;;;5039167;28;20533;-59
2022/01/11 05:28:02;;;;;;;5.80;4.78;;;;;;;;;;5038192;28;20053;-59
2022/01/11 05:30:29;;;;;;;5.85;5.22;;;;;;;;;;5038538;28;20091;-59
2022/01/11 05:32:55;;;;;;;5.43;4.90;;;;;;;;;;5038406;28;20107;-59
2022/01/11 05:35:22;;;;;;;11.30;4.97;;;;;;;;;;5039452;28;20040;-59
2022/01/11 05:37:49;;;;;;;6.45;5.80;;;;;;;;;;5038726;28;20025;-59
2022/01/11 05:40:15;;;;;;;7.18;4.88;;;;;;;;;;5037010;28;20031;-59
2022/01/11 05:42:43;;;;;;;6.15;5.13;;;;;;;;;;5036855;28;20480;-59
2022/01/11 05:45:10;;;;;;;11.23;4.47;;;;;;;;;;5037749;28;20052;-60
2022/01/11 05:47:36;;;;;;;6.35;5.72;;;;;;;;;;5039777;28;20026;-59
2022/01/11 05:50:03;;;;;;;6.05;4.68;;;;;;;;;;5038673;28;20095;-60
2022/01/11 05:52:29;;;;;;;5.93;5.20;;;;;;;;;;5038978;28;20526;-60
2022/01/11 05:54:55;;;;;;;8.50;6.05;;;;;;;;;;5039826;28;20187;-59
2022/01/11 05:57:20;;;;;;;8.02;6.43;;;;;;;;;;5037083;28;20487;-60
2022/01/11 05:59:46;;;;;;;6.55;4.75;;;;;;;;;;5036030;28;20474;-59
2022/01/11 06:02:11;;;;;;;6.95;6.18;;;;;;;;;;5037985;28;20033;-59
2022/01/11 06:04:36;;;;;;;10.48;6.68;;;;;;;;;;5036369;28;20513;-60
2022/01/11 06:07:02;;;;;;;7.90;6.22;;;;;;;;;;5041831;28;20025;-60
2022/01/11 06:09:28;;;;;;;8.60;5.40;;;;;;;;;;5040023;28;20064;-60
2022/01/11 06:11:55;;;;;;;4.97;4.47;;;;;;;;;;5043826;28;20375;-59
2022/01/11 06:14:21;;;;;;;9.02;6.32;;;;;;;;;;5038630;28;20030;-59
2022/01/11 06:16:46;;;;;;;5.60;5.10;;;;;;;;;;5034986;28;20033;-59
2022/01/11 06:19:12;;;;;;;7.00;5.78;;;;;;;;;;5041077;28;20103;-59
2022/01/11 06:21:38;;;;;;;5.18;4.57;;;;;;;;;;5043866;28;20068;-59
2022/01/11 06:24:04;;;;;;;6.32;4.68;;;;;;;;;;5044158;28;20481;-60
2022/01/11 06:26:30;;;;;;;5.15;4.63;;;;;;;;;;5043134;28;20424;-58
2022/01/11 06:28:56;;;;;;;6.95;5.28;;;;;;;;;;5042168;28;20033;-58
2022/01/11 06:31:22;;;;;;;4.95;4.35;;;;;;;;;;5041300;28;20036;-58
2022/01/11 06:33:48;;;;;;;8.13;5.22;;;;;;;;;;5042114;28;20072;-58
2022/01/11 06:36:13;;;;;;;5.32;4.80;;;;;;;;;;5040918;28;20068;-58
2022/01/11 06:38:40;;;;;;;4.80;4.22;;;;;;;;;;5045665;28;20029;-59
2022/01/11 06:41:06;;;;;;;5.35;4.85;;;;;;;;;;5044629;28;20029;-59
2022/01/11 06:43:31;;;;;;;8.82;3.78;;;;;;;;;;5042898;28;20453;-59
2022/01/11 06:45:57;;;;;;;6.88;4.63;;;;;;;;;;5044439;28;20047;-59
2022/01/11 06:48:22;;;;;;;4.72;4.28;;;;;;;;;;5039778;28;20055;-59
2022/01/11 06:50:47;;;;;;;4.53;4.03;;;;;;;;;;5043956;28;20174;-60
2022/01/11 06:53:13;;;;;;;5.38;4.88;;;;;;;;;;5042980;28;20056;-59
2022/01/11 06:55:39;;;;;;;4.93;4.43;;;;;;;;;;5043469;28;20029;-59
2022/01/11 06:58:04;;;;;;;7.28;5.85;;;;;;;;;;5042760;28;20074;-60
2022/01/11 07:00:29;;;;;;;4.53;4.13;;;;;;;;;;5041522;28;20040;-60
2022/01/11 07:02:55;;;;;;;6.38;5.10;;;;;;;;;;5042722;28;20036;-60
2022/01/11 07:05:21;;;;;;;5.78;4.68;;;;;;;;;;5042469;28;20028;-59
2022/01/11 07:07:46;;;;;;;5.63;5.07;;;;;;;;;;5045800;28;20441;-59
2022/01/11 07:10:12;;;;;;;7.43;5.80;;;;;;;;;;5043593;28;20059;-59
2022/01/11 07:12:37;;;;;;;6.32;4.55;;;;;;;;;;5041838;28;20636;-59
2022/01/11 07:15:03;;;;;;;7.18;6.05;;;;;;;;;;5040655;28;20585;-60
2022/01/11 07:17:29;;;;;;;6.50;4.82;;;;;;;;;;5039030;28;20029;-60
2022/01/11 07:19:55;;;;;;;7.68;5.45;;;;;;;;;;5038370;28;20033;-60
2022/01/11 07:22:20;;;;;;;8.15;6.55;;;;;;;;;;5042295;28;20452;-60
2022/01/11 07:24:46;;;;;;;6.55;5.90;;;;;;;;;;5041497;28;20033;-60
2022/01/11 07:27:12;;;;;;;8.90;7.80;;;;;;;;;;5042988;28;20152;-60
2022/01/11 07:29:37;;;;;;;34.60;17.90;;;;;;;;;;5041315;28;20029;-60
2022/01/11 07:32:03;;;;;;;38.25;26.55;;;;;;;;;;5041951;28;20487;-60
2022/01/11 07:34:28;;;;;;;13.85;10.35;;;;;;;;;;5042265;28;20033;-60
2022/01/11 07:36:53;;;;;;;9.00;7.35;;;;;;;;;;5042105;28;20028;-60
2022/01/11 07:39:19;;;;;;;12.77;7.72;;;;;;;;;;5043601;28;20033;-60
2022/01/11 07:41:45;;;;;;;9.57;7.60;;;;;;;;;;5042378;28;20466;-60
2022/01/11 07:44:11;;;;;;;5.45;4.68;;;;;;;;;;5042048;28;20073;-60
2022/01/11 07:46:38;;;;;;;10.30;8.60;;;;;;;;;;5040674;28;20138;-60
2022/01/11 07:49:05;;;;;;;9.85;7.82;;;;;;;;;;5042124;28;20036;-60
2022/01/11 07:51:30;;;;;;;14.70;6.88;;;;;;;;;;5040131;28;20562;-60
2022/01/11 07:53:56;;;;;;;6.43;5.82;;;;;;;;;;5041680;28;20033;-60
2022/01/11 07:56:21;;;;;;;5.75;5.25;;;;;;;;;;5037914;28;20047;-60
2022/01/11 07:58:47;;;;;;;5.07;4.57;;;;;;;;;;5040409;28;20037;-60
2022/01/11 08:01:13;;;;;;;6.90;6.22;;;;;;;;;;5042288;28;20947;-59
2022/01/11 08:03:38;;;;;;;6.03;5.43;;;;;;;;;;5040714;28;20047;-60
2022/01/11 08:06:04;;;;;;;10.07;5.65;;;;;;;;;;5040519;28;20041;-60
2022/01/11 08:08:30;;;;;;;6.35;5.05;;;;;;;;;;5054725;28;20190;-60
2022/01/11 08:10:56;;;;;;;7.75;5.10;;;;;;;;;;5041551;28;20112;-60
2022/01/11 08:13:22;;;;;;;7.53;6.20;;;;;;;;;;5041734;28;20107;-60
2022/01/11 08:15:48;;;;;;;9.77;6.97;;;;;;;;;;5036980;28;20119;-59
2022/01/11 08:18:14;;;;;;;6.25;5.28;;;;;;;;;;5034620;28;20037;-60
2022/01/11 08:20:39;;;;;;;5.28;4.75;;;;;;;;;;5037910;28;20976;-61
2022/01/11 08:23:04;;;;;;;7.43;6.70;;;;;;;;;;5037352;28;20501;-61
2022/01/11 08:25:30;;;;;;;9.02;6.53;;;;;;;;;;5040218;28;20037;-60
2022/01/11 08:27:55;;;;;;;7.38;6.13;;;;;;;;;;5036420;28;20689;-61
2022/01/11 08:30:21;;;;;;;7.53;6.25;;;;;;;;;;5037845;28;20034;-60
2022/01/11 08:32:46;;;;;;;5.85;5.25;;;;;;;;;;5040509;28;20387;-61
2022/01/11 08:35:12;;;;;;;9.43;6.40;;;;;;;;;;5034177;28;20444;-60
2022/01/11 08:37:38;;;;;;;9.32;5.43;;;;;;;;;;5035816;28;20043;-60
2022/01/11 08:40:05;;;;;;;6.35;5.47;;;;;;;;;;5040382;28;20025;-60
2022/01/11 08:42:31;;;;;;;6.18;5.07;;;;;;;;;;5038181;28;20072;-61
2022/01/11 08:44:56;;;;;;;5.68;5.13;;;;;;;;;;5039206;28;20068;-61
2022/01/11 08:47:24;;;;;;;7.65;5.30;;;;;;;;;;5042260;28;20040;-61
2022/01/11 08:49:50;;;;;;;8.55;4.80;;;;;;;;;;5038351;28;20439;-60
2022/01/11 08:52:15;;;;;;;5.03;4.53;;;;;;;;;;5040543;28;20032;-61
2022/01/11 08:54:41;;;;;;;9.35;6.32;;;;;;;;;;5036865;28;20045;-60
2022/01/11 08:57:07;;;;;;;6.53;5.32;;;;;;;;;;5041011;28;20684;-61
2022/01/11 08:59:33;;;;;;;6.00;5.40;;;;;;;;;;5038185;28;20025;-60
2022/01/11 09:02:00;;;;;;;6.60;5.32;;;;;;;;;;5035714;28;20055;-61
2022/01/11 09:04:26;;;;;;;7.60;5.53;;;;;;;;;;5037156;28;20490;-62
2022/01/11 09:06:57;;;;;;;8.95;6.03;;;;;;;;;;5040201;28;20033;-62
2022/01/11 09:09:23;;;;;;;7.97;6.07;;;;;;;;;;5037151;28;20499;-61
2022/01/11 09:11:51;;;;;;;6.68;5.93;;;;;;;;;;5038471;28;20037;-62
2022/01/11 09:14:16;;;;;;;8.25;6.00;;;;;;;;;;5038274;28;20033;-62
2022/01/11 09:16:42;;;;;;;8.52;5.80;;;;;;;;;;5037682;28;20041;-62
2022/01/11 09:19:07;;;;;;;9.20;6.25;;;;;;;;;;5035378;28;20036;-61
2022/01/11 09:21:33;;;;;;;10.23;7.10;;;;;;;;;;5034684;28;20044;-61
2022/01/11 09:23:59;;;;;;;5.63;4.95;;;;;;;;;;5040787;28;20029;-61
2022/01/11 09:26:24;;;;;;;6.82;5.75;;;;;;;;;;5037476;28;20051;-61
2022/01/11 09:28:50;;;;;;;6.22;5.53;;;;;;;;;;5037274;28;20045;-61
2022/01/11 09:31:16;;;;;;;8.20;5.97;;;;;;;;;;5036553;28;20457;-61
2022/01/11 09:33:42;;;;;;;11.82;6.82;;;;;;;;;;5037523;28;20135;-61
2022/01/11 09:36:08;;;;;;;5.65;5.07;;;;;;;;;;5037919;28;20131;-61
2022/01/11 09:38:34;;;;;;;12.80;7.30;;;;;;;;;;5036272;28;20144;-61
2022/01/11 09:41:00;;;;;;;5.63;4.95;;;;;;;;;;5044089;28;20505;-61
2022/01/11 09:43:27;;;;;;;7.25;5.55;;;;;;;;;;5043539;28;20045;-60
2022/01/11 09:45:54;;;;;;;16.05;5.93;;;;;;;;;;5043241;28;20033;-61
2022/01/11 09:48:22;;;;;;;5.63;5.05;;;;;;;;;;5041664;28;20152;-61
2022/01/11 09:50:47;;;;;;;9.23;5.88;;;;;;;;;;5040526;28;20045;-61
2022/01/11 09:53:13;;;;;;;5.97;5.35;;;;;;;;;;5038235;28;20036;-61
2022/01/11 09:55:39;;;;;;;7.68;5.55;;;;;;;;;;5041806;28;20044;-61
2022/01/11 09:58:05;;;;;;;13.52;7.00;;;;;;;;;;5039133;28;20429;-61
2022/01/11 10:00:31;;;;;;;6.97;5.18;;;;;;;;;;5037958;28;20142;-61
2022/01/11 10:02:57;;;;;;;6.80;6.20;;;;;;;;;;5038786;28;20037;-60
2022/01/11 10:05:23;;;;;;;8.40;5.65;;;;;;;;;;5041050;28;20052;-61
2022/01/11 10:07:49;;;;;;;7.65;6.53;;;;;;;;;;5041740;28;20037;-61
2022/01/11 10:10:21;;;;;;;5.97;5.35;;;;;;;;;;5038455;28;20032;-61
2022/01/11 10:12:50;;;;;;;5.55;5.00;;;;;;;;;;5043844;28;20032;-62
2022/01/11 10:15:25;;;;;;;6.40;5.38;;;;;;;;;;5037554;28;20115;-60
2022/01/11 10:17:50;;;;;;;5.85;5.13;;;;;;;;;;5041012;28;20572;-61
2022/01/11 10:20:21;;;;;;;6.00;5.40;;;;;;;;;;5038099;28;20026;-62
2022/01/11 10:22:47;;;;;;;;;;;;;;;;;;5041856;28;20037;-61
2022/01/11 10:25:12;;;;;;;6.47;5.85;;;;;;;;;;5040553;28;19912;-61
2022/01/11 10:27:37;;;;;;;6.65;5.63;;;;;;;;;;5042363;28;20037;-61
2022/01/11 10:30:06;;;;;;;6.18;5.57;;;;;;;;;;5036702;28;20551;-60
2022/01/11 10:32:35;;;;;;;5.65;4.90;;;;;;;;;;5043903;28;20065;-61
2022/01/11 10:35:05;;;;;;;6.22;5.03;;;;;;;;;;5037676;28;20048;-61
2022/01/11 10:37:39;;;;;;;7.32;5.22;;;;;;;;;;5041708;28;20096;-60
2022/01/11 10:40:13;;;;;;;6.25;5.65;;;;;;;;;;5041091;28;20052;-60
2022/01/11 10:42:55;;;;;;;7.65;6.43;;;;;;;;;;5039947;28;20620;-60
2022/01/11 10:45:29;;;;;;;8.50;5.43;;;;;;;;;;5038925;28;20035;-60
2022/01/11 10:48:00;;;;;;;6.68;5.18;;;;;;;;;;5042298;28;20161;-60
2022/01/11 10:50:28;;;;;;;6.65;5.93;;;;;;;;;;5038895;28;20041;-59
2022/01/11 10:52:59;;;;;;;6.03;5.28;;;;;;;;;;5037750;28;20038;-60
2022/01/11 10:55:27;;;;;;;5.78;5.25;;;;;;;;;;5044897;28;20033;-60
2022/01/11 10:57:58;;;;;;;8.32;6.30;;;;;;;;;;5036058;28;20036;-60
2022/01/11 11:00:28;;;;;;;5.53;5.00;;;;;;;;;;5041135;28;20776;-60
2022/01/11 11:03:08;;;;;;;12.07;6.18;;;;;;;;;;5038253;28;20064;-60
2022/01/11 11:05:45;;;;;;;7.63;6.40;;;;;;;;;;5036065;28;20041;-59
2022/01/11 11:08:23;;;;;;;7.05;5.90;;;;;;;;;;5040884;28;20029;-60
2022/01/11 11:11:05;;;;;;;4.85;4.35;;;;;;;;;;5039811;28;20059;-60
2022/01/11 11:13:40;;;;;;;4.65;4.25;;;;;;;;;;5035323;28;20045;-60
2022/01/11 11:16:12;;;;;;;6.68;5.80;;;;;;;;;;5039423;28;20051;-60
2022/01/11 11:18:52;;;;;;;5.88;5.28;;;;;;;;;;5043887;28;20032;-60
2022/01/11 11:21:23;;;;;;;7.75;5.95;;;;;;;;;;5039004;28;20032;-60
2022/01/11 11:23:54;;;;;;;6.10;4.70;;;;;;;;;;5038396;28;20051;-59
2022/01/11 11:26:21;;;;;;;11.88;6.07;;;;;;;;;;5040599;28;20522;-60
2022/01/11 11:28:47;;;;;;;7.82;6.10;;;;;;;;;;5043121;28;20132;-55
2022/01/11 11:31:13;;;;;;;7.10;6.35;;;;;;;;;;5040571;28;20732;-59
2022/01/11 11:33:41;;;;;;;6.93;5.65;;;;;;;;;;5041694;28;20033;-61
2022/01/11 11:36:10;;;;;;;5.57;4.68;;;;;;;;;;5041579;28;20393;-60
2022/01/11 11:38:44;;;;;;;6.13;5.53;;;;;;;;;;5038011;28;20069;-59
2022/01/11 11:41:12;;;;;;;4.53;4.13;;;;;;;;;;5040698;28;20029;-59
2022/01/11 11:43:37;;;;;;;6.93;6.30;;;;;;;;;;5033185;28;20033;-59
2022/01/11 11:46:03;;;;;;;5.78;5.00;;;;;;;;;;5035400;28;20044;-59
2022/01/11 11:48:29;;;;;;;5.88;5.22;;;;;;;;;;5040003;28;20044;-59
2022/01/11 11:51:07;;;;;;;5.30;4.80;;;;;;;;;;5039166;28;20459;-60
2022/01/11 11:53:35;;;;;;;7.38;4.82;;;;;;;;;;5038016;28;20092;-59
2022/01/11 11:56:23;;;;;;;15.20;5.75;;;;;;;;;;5040097;28;20530;-59
2022/01/11 11:58:52;;;;;;;5.82;5.28;;;;;;;;;;5036897;28;20649;-59
2022/01/11 12:01:42;;;;;;;8.57;6.40;;;;;;;;;;5041200;28;20029;-60
2022/01/11 12:04:11;;;;;;;6.40;4.55;;;;;;;;;;5037448;28;20482;-59
2022/01/11 12:06:36;;;;;;;5.70;5.20;;;;;;;;;;5037996;28;20048;-60
2022/01/11 12:09:07;;;;;;;5.35;4.85;;;;;;;;;;5040151;28;20033;-60
2022/01/11 12:11:42;;;;;;;6.50;5.93;;;;;;;;;;5041521;28;20494;-60
2022/01/11 12:14:26;;;;;;;4.55;4.15;;;;;;;;;;5039319;28;20572;-60
2022/01/11 12:16:52;;;;;;;7.53;5.05;;;;;;;;;;5040775;28;20041;-60
2022/01/11 12:19:41;;;;;;;5.18;4.68;;;;;;;;;;5035831;28;20563;-60
2022/01/11 12:22:06;;;;;;;4.95;4.45;;;;;;;;;;5036439;28;20537;-60
2022/01/11 12:24:39;;;;;;;6.40;4.22;;;;;;;;;;5038561;28;20140;-60
2022/01/11 12:27:07;;;;;;;7.15;6.10;;;;;;;;;;5037357;28;20106;-59
2022/01/11 12:29:32;;;;;;;5.68;5.07;;;;;;;;;;5037477;28;20040;-59
2022/01/11 12:32:07;;;;;;;6.25;5.65;;;;;;;;;;5039123;28;20098;-59
2022/01/11 12:34:55;;;;;;;5.93;4.38;;;;;;;;;;5042771;28;20378;-58
2022/01/11 12:37:26;;;;;;;4.38;3.80;;;;;;;;;;5039042;28;20044;-60
2022/01/11 12:40:00;;;;;;;;;;;;;;;;;;5038509;28;20111;-59
2022/01/11 12:42:26;;;;;;;4.75;4.35;;;;;;;;;;5042402;28;20386;-59
2022/01/11 12:47:17;;;;;;;15.70;4.25;;;;;;;;;;5039757;28;20705;-60
2022/01/11 12:50:03;;;;;;;4.47;4.05;;;;;;;;;;5043086;28;20033;-59
2022/01/11 12:52:28;;;;;;;4.97;4.47;;;;;;;;;;5036239;28;20045;-60
2022/01/11 12:54:57;;;;;;;6.72;5.28;;;;;;;;;;5040828;28;20024;-60
2022/01/11 12:57:24;;;;;;;4.40;4.00;;;;;;;;;;5042818;28;20048;-60
2022/01/11 12:59:58;;;;;;;5.03;4.35;;;;;;;;;;5038145;28;20056;-60
2022/01/11 13:02:26;;;;;;;4.88;4.40;;;;;;;;;;5038065;28;20120;-60
2022/01/11 13:04:57;;;;;;;7.30;4.45;;;;;;;;;;5039820;28;20510;-60
2022/01/11 13:07:46;;;;;;;5.03;4.53;;;;;;;;;;5036525;28;20789;-60
2022/01/11 13:10:26;;;;;;;5.57;5.07;;;;;;;;;;5035237;28;20041;-60
2022/01/11 13:13:14;;;;;;;6.78;4.78;;;;;;;;;;5039427;28;20033;-60
2022/01/11 13:15:44;;;;;;;5.28;4.60;;;;;;;;;;5038407;28;20029;-60
2022/01/11 13:18:12;;;;;;;5.40;4.90;;;;;;;;;;5039391;28;20035;-60
2022/01/11 13:20:58;;;;;;;4.63;4.20;;;;;;;;;;5038277;28;20374;-60
2022/01/11 13:23:43;;;;;;;4.45;3.53;;;;;;;;;;5034067;28;20038;-60
2022/01/11 13:26:12;;;;;;;4.05;3.65;;;;;;;;;;5040306;28;20047;-60
2022/01/11 13:28:46;;;;;;;5.05;4.38;;;;;;;;;;5039618;28;20048;-60
2022/01/11 13:31:18;;;;;;;4.10;3.40;;;;;;;;;;5038067;28;20141;-60
2022/01/11 13:33:48;;;;;;;4.40;4.00;;;;;;;;;;5037756;28;20048;-60
2022/01/11 13:36:27;;;;;;;5.87;5.30;;;;;;;;;;5037218;28;20032;-60
2022/01/11 13:38:56;;;;;;;4.47;4.07;;;;;;;;;;5042064;28;20354;-60
2022/01/11 13:41:30;;;;;;;5.00;4.03;;;;;;;;;;5037167;28;20114;-60
2022/01/11 13:44:00;;;;;;;4.57;4.10;;;;;;;;;;5039358;28;20037;-60
2022/01/11 13:46:28;;;;;;;4.53;4.13;;;;;;;;;;5037584;28;20063;-60
2022/01/11 13:48:55;;;;;;;14.25;4.10;;;;;;;;;;5038314;28;20120;-60
2022/01/11 13:51:31;;;;;;;4.53;3.67;;;;;;;;;;5041997;28;20034;-60
2022/01/11 13:54:05;;;;;;;4.68;3.70;;;;;;;;;;5038697;28;20121;-60
2022/01/11 13:56:41;;;;;;;4.35;3.95;;;;;;;;;;5038239;28;20091;-60
2022/01/11 13:59:07;;;;;;;3.88;3.47;;;;;;;;;;5039940;28;20030;-60
2022/01/11 14:01:32;;;;;;;4.25;3.85;;;;;;;;;;5039398;28;20025;-60
2022/01/11 14:04:09;;;;;;;4.50;4.10;;;;;;;;;;5037294;28;20628;-60
2022/01/11 14:06:44;;;;;;;4.15;3.67;;;;;;;;;;5037621;28;20061;-60
2022/01/11 14:09:22;;;;;;;4.47;4.07;;;;;;;;;;5037463;28;20044;-60
2022/01/11 14:12:07;;;;;;;7.82;4.35;;;;;;;;;;5038088;28;20041;-60
2022/01/11 14:14:34;;;;;;;3.95;3.55;;;;;;;;;;5039386;28;20720;-60
2022/01/11 14:17:13;;;;;;;5.05;4.10;;;;;;;;;;5039150;28;20538;-59
2022/01/11 14:20:07;;;;;;;5.28;4.78;;;;;;;;;;5037631;28;20039;-59
2022/01/11 14:22:39;;;;;;;4.15;3.60;;;;;;;;;;5038350;28;20049;-60
2022/01/11 14:25:07;;;;;;;9.75;4.38;;;;;;;;;;5035717;28;20699;-61
2022/01/11 14:27:35;;;;;;;5.03;4.63;;;;;;;;;;5034596;28;20041;-62
2022/01/11 14:30:07;;;;;;;4.35;3.95;;;;;;;;;;5039554;28;20025;-60
2022/01/11 14:32:33;;;;;;;7.43;5.60;;;;;;;;;;5041491;28;20117;-61
2022/01/11 14:35:05;;;;;;;4.35;3.95;;;;;;;;;;5043387;28;20649;-59
2022/01/11 14:37:31;;;;;;;4.93;4.00;;;;;;;;;;5041441;28;20633;-60
2022/01/11 14:39:59;;;;;;;7.18;4.85;;;;;;;;;;5040775;28;20021;-61
2022/01/11 14:42:28;;;;;;;4.13;3.72;;;;;;;;;;5040171;28;20041;-61
2022/01/11 14:45:08;;;;;;;4.95;3.90;;;;;;;;;;5036917;28;20035;-61
2022/01/11 14:47:48;;;;;;;5.97;4.43;;;;;;;;;;5041189;28;20352;-61
2022/01/11 14:50:19;;;;;;;4.40;4.00;;;;;;;;;;5040293;28;20644;-61
2022/01/11 14:52:54;;;;;;;5.47;4.80;;;;;;;;;;5043062;28;20158;-60
2022/01/11 14:55:20;;;;;;;4.20;3.35;;;;;;;;;;5040093;28;20144;-60
2022/01/11 14:57:46;;;;;;;4.22;3.83;;;;;;;;;;5039677;28;20048;-60